sensor_id;sensor_type;location;lat;lon;timestamp;pressure;altitude;pressure_sealevel;temperature;humidity
11329;BME280;5719;42.714;23.732;2024-01-16T00:00:58;92934.53;;;3.40;99.03
11329;BME280;5719;42.714;23.732;2024-01-16T00:03:25;92922.38;;;3.44;98.84
11329;BME280;5719;42.714;23.732;2024-01-16T00:05:53;92934.00;;;3.48;98.78
11329;BME280;5719;42.714;23.732;2024-01-16T00:08:20;92928.69;;;3.51;98.45
11329;BME280;5719;42.714;23.732;2024-01-16T00:10:47;92929.59;;;3.50;98.42
11329;BME280;5719;42.714;23.732;2024-01-16T00:13:19;92930.19;;;3.54;98.62
11329;BME280;5719;42.714;23.732;2024-01-16T00:15:46;92929.59;;;3.50;99.22
11329;BME280;5719;42.714;23.732;2024-01-16T00:18:15;92935.44;;;3.39;99.93
11329;BME280;5719;42.714;23.732;2024-01-16T00:20:42;92934.06;;;3.23;100.00
11329;BME280;5719;42.714;23.732;2024-01-16T00:23:10;92942.13;;;3.29;100.00
11329;BME280;5719;42.714;23.732;2024-01-16T00:25:37;92941.69;;;3.35;100.00
11329;BME280;5719;42.714;23.732;2024-01-16T00:28:04;92944.25;;;3.35;100.00
11329;BME280;5719;42.714;23.732;2024-01-16T00:30:31;92939.84;;;3.37;100.00
11329;BME280;5719;42.714;23.732;2024-01-16T00:32:59;92933.63;;;3.41;100.00
11329;BME280;5719;42.714;23.732;2024-01-16T00:35:25;92932.69;;;3.42;100.00
11329;BME280;5719;42.714;23.732;2024-01-16T00:37:52;92936.19;;;3.41;100.00
11329;BME280;5719;42.714;23.732;2024-01-16T00:40:20;92942.72;;;3.45;99.91
11329;BME280;5719;42.714;23.732;2024-01-16T00:42:47;92929.34;;;3.42;100.00
11329;BME280;5719;42.714;23.732;2024-01-16T00:45:14;92930.53;;;3.49;100.00
11329;BME280;5719;42.714;23.732;2024-01-16T00:47:42;92925.97;;;3.41;100.00
11329;BME280;5719;42.714;23.732;2024-01-16T00:50:09;92933.31;;;3.46;100.00
11329;BME280;5719;42.714;23.732;2024-01-16T00:52:36;92929.72;;;3.36;100.00
11329;BME280;5719;42.714;23.732;2024-01-16T00:55:03;92949.72;;;2.93;100.00
11329;BME280;5719;42.714;23.732;2024-01-16T00:57:31;92948.28;;;3.02;100.00
11329;BME280;5719;42.714;23.732;2024-01-16T00:59:58;92936.63;;;3.10;100.00
11329;BME280;5719;42.714;23.732;2024-01-16T01:02:25;92938.66;;;3.18;100.00
11329;BME280;5719;42.714;23.732;2024-01-16T01:04:52;92956.00;;;3.25;100.00
11329;BME280;5719;42.714;23.732;2024-01-16T01:07:18;92949.06;;;3.27;100.00
11329;BME280;5719;42.714;23.732;2024-01-16T01:09:45;92948.66;;;3.21;100.00
11329;BME280;5719;42.714;23.732;2024-01-16T01:12:12;92964.59;;;2.99;100.00
11329;BME280;5719;42.714;23.732;2024-01-16T01:14:40;92950.94;;;3.13;100.00
11329;BME280;5719;42.714;23.732;2024-01-16T01:17:07;92952.25;;;3.18;100.00
11329;BME280;5719;42.714;23.732;2024-01-16T01:19:33;92958.28;;;2.92;100.00
11329;BME280;5719;42.714;23.732;2024-01-16T01:22:00;92960.94;;;2.78;100.00
11329;BME280;5719;42.714;23.732;2024-01-16T01:24:27;92951.97;;;2.72;100.00
11329;BME280;5719;42.714;23.732;2024-01-16T01:26:54;92959.50;;;2.74;100.00
11329;BME280;5719;42.714;23.732;2024-01-16T01:29:21;92972.38;;;2.72;100.00
11329;BME280;5719;42.714;23.732;2024-01-16T01:31:49;92968.50;;;2.79;100.00
11329;BME280;5719;42.714;23.732;2024-01-16T01:34:16;92973.19;;;2.60;100.00
11329;BME280;5719;42.714;23.732;2024-01-16T01:36:43;92967.16;;;2.61;100.00
11329;BME280;5719;42.714;23.732;2024-01-16T01:39:10;92975.63;;;2.74;100.00
11329;BME280;5719;42.714;23.732;2024-01-16T01:41:37;92963.81;;;2.86;100.00
11329;BME280;5719;42.714;23.732;2024-01-16T01:44:05;92973.09;;;3.00;100.00
11329;BME280;5719;42.714;23.732;2024-01-16T01:46:32;92964.31;;;3.04;100.00
11329;BME280;5719;42.714;23.732;2024-01-16T01:49:02;92958.06;;;3.08;100.00
11329;BME280;5719;42.714;23.732;2024-01-16T01:51:29;92939.19;;;3.10;100.00
11329;BME280;5719;42.714;23.732;2024-01-16T01:53:56;92945.91;;;3.11;100.00
11329;BME280;5719;42.714;23.732;2024-01-16T01:56:24;92954.00;;;3.05;100.00
11329;BME280;5719;42.714;23.732;2024-01-16T01:58:53;92949.50;;;3.09;100.00
11329;BME280;5719;42.714;23.732;2024-01-16T02:01:23;92959.09;;;3.18;100.00
11329;BME280;5719;42.714;23.732;2024-01-16T02:03:52;92969.41;;;3.16;100.00
11329;BME280;5719;42.714;23.732;2024-01-16T02:06:23;92962.56;;;3.17;100.00
11329;BME280;5719;42.714;23.732;2024-01-16T02:08:51;92959.91;;;3.18;100.00
11329;BME280;5719;42.714;23.732;2024-01-16T02:11:17;92965.53;;;3.11;100.00
11329;BME280;5719;42.714;23.732;2024-01-16T02:20:31;92978.09;;;2.88;100.00
11329;BME280;5719;42.714;23.732;2024-01-16T02:23:00;92984.94;;;3.01;100.00
11329;BME280;5719;42.714;23.732;2024-01-16T02:25:31;92992.69;;;3.12;100.00
11329;BME280;5719;42.714;23.732;2024-01-16T02:27:59;92993.41;;;3.14;100.00
11329;BME280;5719;42.714;23.732;2024-01-16T02:30:26;92998.00;;;3.21;100.00
11329;BME280;5719;42.714;23.732;2024-01-16T02:32:52;92979.41;;;3.07;100.00
11329;BME280;5719;42.714;23.732;2024-01-16T02:35:19;93011.47;;;3.11;100.00
11329;BME280;5719;42.714;23.732;2024-01-16T02:37:46;93010.34;;;3.15;100.00
11329;BME280;5719;42.714;23.732;2024-01-16T02:40:13;92995.97;;;3.01;100.00
11329;BME280;5719;42.714;23.732;2024-01-16T02:42:42;93004.84;;;3.08;100.00
11329;BME280;5719;42.714;23.732;2024-01-16T02:45:09;93012.69;;;3.18;100.00
11329;BME280;5719;42.714;23.732;2024-01-16T02:47:36;93000.88;;;3.17;100.00
11329;BME280;5719;42.714;23.732;2024-01-16T02:50:03;93025.25;;;3.21;100.00
11329;BME280;5719;42.714;23.732;2024-01-16T02:52:30;93027.81;;;3.08;100.00
11329;BME280;5719;42.714;23.732;2024-01-16T02:54:57;93000.34;;;3.12;100.00
11329;BME280;5719;42.714;23.732;2024-01-16T02:57:24;93027.91;;;3.32;100.00
11329;BME280;5719;42.714;23.732;2024-01-16T02:59:52;93027.59;;;3.36;100.00
11329;BME280;5719;42.714;23.732;2024-01-16T03:02:19;93034.34;;;3.37;100.00
11329;BME280;5719;42.714;23.732;2024-01-16T03:04:46;93033.31;;;3.40;100.00
11329;BME280;5719;42.714;23.732;2024-01-16T03:07:12;93036.09;;;3.37;100.00
11329;BME280;5719;42.714;23.732;2024-01-16T03:09:39;93045.19;;;3.16;100.00
11329;BME280;5719;42.714;23.732;2024-01-16T03:38:27;93118.66;;;3.63;100.00
11329;BME280;5719;42.714;23.732;2024-01-16T03:40:54;93115.28;;;3.50;100.00
11329;BME280;5719;42.714;23.732;2024-01-16T03:43:21;93127.63;;;3.56;100.00
11329;BME280;5719;42.714;23.732;2024-01-16T03:45:48;93127.84;;;3.53;100.00
11329;BME280;5719;42.714;23.732;2024-01-16T03:48:14;93132.13;;;3.52;100.00
11329;BME280;5719;42.714;23.732;2024-01-16T03:50:41;93138.88;;;3.53;100.00
11329;BME280;5719;42.714;23.732;2024-01-16T03:53:09;93139.28;;;3.47;100.00
11329;BME280;5719;42.714;23.732;2024-01-16T03:55:37;93139.50;;;3.31;100.00
11329;BME280;5719;42.714;23.732;2024-01-16T03:58:04;93151.56;;;3.42;100.00
11329;BME280;5719;42.714;23.732;2024-01-16T04:00:31;93148.88;;;3.43;100.00
11329;BME280;5719;42.714;23.732;2024-01-16T04:02:58;93161.16;;;3.51;100.00
11329;BME280;5719;42.714;23.732;2024-01-16T04:05:25;93161.16;;;3.38;100.00
11329;BME280;5719;42.714;23.732;2024-01-16T04:07:52;93177.88;;;3.30;100.00
11329;BME280;5719;42.714;23.732;2024-01-16T04:10:18;93181.75;;;3.23;100.00
11329;BME280;5719;42.714;23.732;2024-01-16T04:12:47;93200.19;;;3.14;100.00
11329;BME280;5719;42.714;23.732;2024-01-16T04:15:13;93201.19;;;2.99;100.00
11329;BME280;5719;42.714;23.732;2024-01-16T04:17:40;93208.38;;;2.79;100.00
11329;BME280;5719;42.714;23.732;2024-01-16T04:20:08;93217.72;;;2.38;100.00
11329;BME280;5719;42.714;23.732;2024-01-16T04:22:35;93227.03;;;2.39;100.00
11329;BME280;5719;42.714;23.732;2024-01-16T04:25:02;93231.69;;;2.32;100.00
11329;BME280;5719;42.714;23.732;2024-01-16T04:27:30;93245.97;;;2.35;100.00
11329;BME280;5719;42.714;23.732;2024-01-16T04:29:58;93248.44;;;2.36;100.00
11329;BME280;5719;42.714;23.732;2024-01-16T04:32:25;93245.16;;;2.34;100.00
11329;BME280;5719;42.714;23.732;2024-01-16T04:34:51;93255.53;;;2.45;100.00
11329;BME280;5719;42.714;23.732;2024-01-16T04:37:19;93249.59;;;2.45;100.00
11329;BME280;5719;42.714;23.732;2024-01-16T04:39:45;93264.19;;;2.57;100.00
11329;BME280;5719;42.714;23.732;2024-01-16T04:42:12;93258.31;;;2.55;100.00
11329;BME280;5719;42.714;23.732;2024-01-16T04:44:39;93276.91;;;2.71;100.00
11329;BME280;5719;42.714;23.732;2024-01-16T04:47:07;93278.16;;;2.78;100.00
11329;BME280;5719;42.714;23.732;2024-01-16T04:49:34;93275.06;;;2.73;100.00
11329;BME280;5719;42.714;23.732;2024-01-16T04:52:01;93281.28;;;2.55;100.00
11329;BME280;5719;42.714;23.732;2024-01-16T04:54:28;93288.75;;;2.30;100.00
11329;BME280;5719;42.714;23.732;2024-01-16T04:56:55;93284.03;;;2.38;100.00
11329;BME280;5719;42.714;23.732;2024-01-16T04:59:22;93285.31;;;2.31;100.00
11329;BME280;5719;42.714;23.732;2024-01-16T05:01:49;93283.22;;;2.37;100.00
11329;BME280;5719;42.714;23.732;2024-01-16T05:04:17;93289.13;;;2.52;100.00
11329;BME280;5719;42.714;23.732;2024-01-16T05:06:44;93294.06;;;2.69;100.00
11329;BME280;5719;42.714;23.732;2024-01-16T05:09:10;93300.78;;;2.70;100.00
11329;BME280;5719;42.714;23.732;2024-01-16T05:11:37;93298.59;;;2.78;100.00
11329;BME280;5719;42.714;23.732;2024-01-16T05:14:04;93316.09;;;2.56;100.00
11329;BME280;5719;42.714;23.732;2024-01-16T05:16:31;93319.09;;;2.48;100.00
11329;BME280;5719;42.714;23.732;2024-01-16T05:18:57;93345.88;;;2.70;100.00
11329;BME280;5719;42.714;23.732;2024-01-16T05:21:26;93351.44;;;2.76;100.00
11329;BME280;5719;42.714;23.732;2024-01-16T05:23:52;93369.50;;;2.87;100.00
11329;BME280;5719;42.714;23.732;2024-01-16T05:26:19;93352.06;;;2.94;100.00
11329;BME280;5719;42.714;23.732;2024-01-16T05:28:47;93362.47;;;2.91;100.00
11329;BME280;5719;42.714;23.732;2024-01-16T05:31:14;93361.53;;;2.92;100.00
11329;BME280;5719;42.714;23.732;2024-01-16T05:33:41;93373.84;;;3.00;100.00
11329;BME280;5719;42.714;23.732;2024-01-16T05:36:08;93375.69;;;2.83;100.00
11329;BME280;5719;42.714;23.732;2024-01-16T05:38:36;93377.88;;;2.75;100.00
11329;BME280;5719;42.714;23.732;2024-01-16T05:41:03;93381.88;;;2.79;100.00
11329;BME280;5719;42.714;23.732;2024-01-16T05:43:30;93393.38;;;2.86;100.00
11329;BME280;5719;42.714;23.732;2024-01-16T05:45:57;93399.56;;;2.96;100.00
11329;BME280;5719;42.714;23.732;2024-01-16T05:48:23;93392.72;;;2.97;100.00
11329;BME280;5719;42.714;23.732;2024-01-16T05:50:53;93416.31;;;3.15;100.00
11329;BME280;5719;42.714;23.732;2024-01-16T05:53:20;93418.78;;;3.16;100.00
11329;BME280;5719;42.714;23.732;2024-01-16T05:55:48;93431.25;;;3.21;100.00
11329;BME280;5719;42.714;23.732;2024-01-16T05:58:15;93427.28;;;3.17;100.00
11329;BME280;5719;42.714;23.732;2024-01-16T06:00:42;93447.06;;;3.27;100.00
11329;BME280;5719;42.714;23.732;2024-01-16T06:03:08;93445.50;;;3.25;100.00
11329;BME280;5719;42.714;23.732;2024-01-16T06:05:35;93425.34;;;2.78;100.00
11329;BME280;5719;42.714;23.732;2024-01-16T06:11:31;93486.59;;;2.78;100.00
11329;BME280;5719;42.714;23.732;2024-01-16T06:14:00;93482.78;;;2.85;100.00
11329;BME280;5719;42.714;23.732;2024-01-16T06:16:26;93483.84;;;2.81;100.00
11329;BME280;5719;42.714;23.732;2024-01-16T06:18:54;93496.81;;;2.78;100.00
11329;BME280;5719;42.714;23.732;2024-01-16T06:21:22;93511.22;;;2.49;100.00
11329;BME280;5719;42.714;23.732;2024-01-16T06:23:49;93513.53;;;2.54;100.00
11329;BME280;5719;42.714;23.732;2024-01-16T06:26:16;93504.06;;;2.26;100.00
11329;BME280;5719;42.714;23.732;2024-01-16T06:28:44;93529.25;;;2.46;100.00
11329;BME280;5719;42.714;23.732;2024-01-16T06:31:11;93533.88;;;2.39;100.00
11329;BME280;5719;42.714;23.732;2024-01-16T06:33:38;93548.47;;;2.22;100.00
11329;BME280;5719;42.714;23.732;2024-01-16T06:36:06;93554.63;;;2.18;100.00
11329;BME280;5719;42.714;23.732;2024-01-16T06:38:32;93559.81;;;2.01;100.00
11329;BME280;5719;42.714;23.732;2024-01-16T06:40:59;93574.44;;;2.13;100.00
11329;BME280;5719;42.714;23.732;2024-01-16T06:43:30;93577.16;;;2.10;100.00
11329;BME280;5719;42.714;23.732;2024-01-16T06:45:58;93578.13;;;2.23;100.00
11329;BME280;5719;42.714;23.732;2024-01-16T06:48:26;93582.75;;;2.32;100.00
11329;BME280;5719;42.714;23.732;2024-01-16T06:50:52;93601.31;;;2.34;100.00
11329;BME280;5719;42.714;23.732;2024-01-16T06:53:19;93600.78;;;2.29;100.00
11329;BME280;5719;42.714;23.732;2024-01-16T06:55:46;93606.09;;;2.09;100.00
11329;BME280;5719;42.714;23.732;2024-01-16T06:58:13;93607.91;;;1.91;100.00
11329;BME280;5719;42.714;23.732;2024-01-16T07:00:40;93613.63;;;1.79;100.00
11329;BME280;5719;42.714;23.732;2024-01-16T07:03:09;93624.91;;;1.90;100.00
11329;BME280;5719;42.714;23.732;2024-01-16T07:05:36;93631.06;;;1.86;100.00
11329;BME280;5719;42.714;23.732;2024-01-16T07:08:03;93637.31;;;1.81;100.00
11329;BME280;5719;42.714;23.732;2024-01-16T07:10:30;93648.50;;;1.78;100.00
11329;BME280;5719;42.714;23.732;2024-01-16T07:12:57;93651.84;;;1.63;100.00
11329;BME280;5719;42.714;23.732;2024-01-16T07:15:24;93653.78;;;1.58;100.00
11329;BME280;5719;42.714;23.732;2024-01-16T07:21:20;93660.81;;;1.86;100.00
11329;BME280;5719;42.714;23.732;2024-01-16T07:23:47;93658.16;;;1.89;100.00
11329;BME280;5719;42.714;23.732;2024-01-16T07:26:14;93654.22;;;1.99;100.00
11329;BME280;5719;42.714;23.732;2024-01-16T07:28:42;93667.38;;;2.07;100.00
11329;BME280;5719;42.714;23.732;2024-01-16T07:31:09;93678.81;;;2.16;100.00
11329;BME280;5719;42.714;23.732;2024-01-16T07:33:37;93681.78;;;2.24;100.00
11329;BME280;5719;42.714;23.732;2024-01-16T07:36:04;93678.63;;;2.19;100.00
11329;BME280;5719;42.714;23.732;2024-01-16T07:38:34;93682.34;;;2.44;100.00
11329;BME280;5719;42.714;23.732;2024-01-16T07:41:01;93683.94;;;2.47;100.00
11329;BME280;5719;42.714;23.732;2024-01-16T07:43:28;93705.00;;;2.66;100.00
11329;BME280;5719;42.714;23.732;2024-01-16T07:45:55;93702.06;;;2.58;100.00
11329;BME280;5719;42.714;23.732;2024-01-16T07:48:22;93720.16;;;2.69;100.00
11329;BME280;5719;42.714;23.732;2024-01-16T07:50:50;93737.50;;;2.63;100.00
11329;BME280;5719;42.714;23.732;2024-01-16T07:53:17;93741.41;;;2.37;100.00
11329;BME280;5719;42.714;23.732;2024-01-16T07:55:45;93756.97;;;2.32;100.00
11329;BME280;5719;42.714;23.732;2024-01-16T07:58:12;93756.94;;;2.17;100.00
11329;BME280;5719;42.714;23.732;2024-01-16T08:00:39;93768.97;;;2.15;100.00
11329;BME280;5719;42.714;23.732;2024-01-16T08:03:08;93757.38;;;1.92;100.00
11329;BME280;5719;42.714;23.732;2024-01-16T08:05:37;93772.44;;;1.96;100.00
11329;BME280;5719;42.714;23.732;2024-01-16T08:08:04;93770.63;;;1.98;100.00
11329;BME280;5719;42.714;23.732;2024-01-16T08:10:31;93781.47;;;2.02;100.00
11329;BME280;5719;42.714;23.732;2024-01-16T08:12:59;93770.75;;;2.13;100.00
11329;BME280;5719;42.714;23.732;2024-01-16T08:15:25;93773.13;;;2.16;100.00
11329;BME280;5719;42.714;23.732;2024-01-16T08:17:52;93780.63;;;2.19;100.00
11329;BME280;5719;42.714;23.732;2024-01-16T08:20:19;93800.72;;;2.25;100.00
11329;BME280;5719;42.714;23.732;2024-01-16T08:22:46;93806.72;;;2.24;100.00
11329;BME280;5719;42.714;23.732;2024-01-16T08:25:15;93808.06;;;2.31;100.00
11329;BME280;5719;42.714;23.732;2024-01-16T08:27:42;93811.59;;;2.28;100.00
11329;BME280;5719;42.714;23.732;2024-01-16T08:30:11;93815.00;;;2.44;100.00
11329;BME280;5719;42.714;23.732;2024-01-16T08:32:38;93816.16;;;2.39;100.00
11329;BME280;5719;42.714;23.732;2024-01-16T08:35:06;93831.44;;;2.39;100.00
11329;BME280;5719;42.714;23.732;2024-01-16T08:37:34;93840.44;;;2.46;100.00
11329;BME280;5719;42.714;23.732;2024-01-16T08:40:01;93846.28;;;2.48;100.00
11329;BME280;5719;42.714;23.732;2024-01-16T08:42:28;93850.69;;;2.29;100.00
11329;BME280;5719;42.714;23.732;2024-01-16T08:44:56;93835.22;;;2.32;100.00
11329;BME280;5719;42.714;23.732;2024-01-16T08:47:24;93855.63;;;2.32;100.00
11329;BME280;5719;42.714;23.732;2024-01-16T08:49:51;93850.03;;;2.41;100.00
11329;BME280;5719;42.714;23.732;2024-01-16T08:52:33;93857.66;;;2.25;100.00
11329;BME280;5719;42.714;23.732;2024-01-16T08:55:00;93852.97;;;2.33;100.00
11329;BME280;5719;42.714;23.732;2024-01-16T08:57:26;93851.69;;;2.42;100.00
11329;BME280;5719;42.714;23.732;2024-01-16T08:59:53;93847.09;;;2.48;100.00
11329;BME280;5719;42.714;23.732;2024-01-16T09:02:20;93852.53;;;2.42;100.00
11329;BME280;5719;42.714;23.732;2024-01-16T09:04:48;93855.84;;;2.60;100.00
11329;BME280;5719;42.714;23.732;2024-01-16T09:07:16;93878.38;;;2.69;100.00
11329;BME280;5719;42.714;23.732;2024-01-16T09:09:43;93880.16;;;2.67;100.00
11329;BME280;5719;42.714;23.732;2024-01-16T09:12:10;93869.91;;;2.52;100.00
11329;BME280;5719;42.714;23.732;2024-01-16T09:14:37;93884.38;;;2.68;100.00
11329;BME280;5719;42.714;23.732;2024-01-16T09:17:04;93892.00;;;2.68;100.00
11329;BME280;5719;42.714;23.732;2024-01-16T09:19:31;93887.69;;;2.53;100.00
11329;BME280;5719;42.714;23.732;2024-01-16T09:21:59;93888.16;;;2.44;100.00
11329;BME280;5719;42.714;23.732;2024-01-16T09:24:26;93886.78;;;2.37;100.00
11329;BME280;5719;42.714;23.732;2024-01-16T09:26:56;93891.63;;;2.26;100.00
11329;BME280;5719;42.714;23.732;2024-01-16T09:29:23;93891.19;;;2.18;100.00
11329;BME280;5719;42.714;23.732;2024-01-16T09:31:50;93869.03;;;2.01;100.00
11329;BME280;5719;42.714;23.732;2024-01-16T09:34:17;93906.84;;;2.27;100.00
11329;BME280;5719;42.714;23.732;2024-01-16T09:36:44;93914.63;;;2.41;100.00
11329;BME280;5719;42.714;23.732;2024-01-16T09:39:12;93915.38;;;2.61;100.00
11329;BME280;5719;42.714;23.732;2024-01-16T09:41:39;93905.69;;;2.50;100.00
11329;BME280;5719;42.714;23.732;2024-01-16T09:44:06;93908.09;;;2.53;100.00
11329;BME280;5719;42.714;23.732;2024-01-16T09:46:34;93913.94;;;2.55;100.00
11329;BME280;5719;42.714;23.732;2024-01-16T09:49:04;93920.41;;;2.62;100.00
11329;BME280;5719;42.714;23.732;2024-01-16T09:51:31;93928.78;;;2.64;100.00
11329;BME280;5719;42.714;23.732;2024-01-16T09:53:58;93933.50;;;2.72;100.00
11329;BME280;5719;42.714;23.732;2024-01-16T09:56:26;93919.03;;;2.55;100.00
11329;BME280;5719;42.714;23.732;2024-01-16T09:58:58;93912.22;;;2.73;100.00
11329;BME280;5719;42.714;23.732;2024-01-16T10:01:30;93909.56;;;2.74;100.00
11329;BME280;5719;42.714;23.732;2024-01-16T10:04:04;93920.47;;;2.93;100.00
11329;BME280;5719;42.714;23.732;2024-01-16T10:06:32;93912.44;;;3.01;100.00
11329;BME280;5719;42.714;23.732;2024-01-16T10:09:00;93921.59;;;3.05;100.00
11329;BME280;5719;42.714;23.732;2024-01-16T10:11:28;93936.63;;;3.10;99.68
11329;BME280;5719;42.714;23.732;2024-01-16T10:13:56;93920.47;;;2.93;99.08
11329;BME280;5719;42.714;23.732;2024-01-16T10:16:57;93933.69;;;3.02;98.57
11329;BME280;5719;42.714;23.732;2024-01-16T10:19:27;93929.41;;;3.18;98.38
11329;BME280;5719;42.714;23.732;2024-01-16T10:25:15;93928.94;;;3.42;97.96
11329;BME280;5719;42.714;23.732;2024-01-16T10:27:47;93923.94;;;3.41;96.88
11329;BME280;5719;42.714;23.732;2024-01-16T10:30:14;93929.09;;;3.39;97.22
11329;BME280;5719;42.714;23.732;2024-01-16T10:32:41;93920.13;;;3.48;94.99
11329;BME280;5719;42.714;23.732;2024-01-16T10:35:10;93931.75;;;3.38;93.85
11329;BME280;5719;42.714;23.732;2024-01-16T10:37:47;93928.81;;;3.45;94.84
11329;BME280;5719;42.714;23.732;2024-01-16T10:40:15;93920.22;;;3.31;96.35
11329;BME280;5719;42.714;23.732;2024-01-16T10:42:43;93934.91;;;3.74;95.90
11329;BME280;5719;42.714;23.732;2024-01-16T10:45:18;93923.69;;;3.77;93.32
11329;BME280;5719;42.714;23.732;2024-01-16T10:47:46;93931.41;;;3.75;91.33
11329;BME280;5719;42.714;23.732;2024-01-16T10:50:25;93940.00;;;3.59;94.24
11329;BME280;5719;42.714;23.732;2024-01-16T10:52:54;93944.69;;;3.51;96.33
11329;BME280;5719;42.714;23.732;2024-01-16T10:55:22;93958.13;;;3.38;95.66
11329;BME280;5719;42.714;23.732;2024-01-16T10:57:50;93961.38;;;3.25;96.19
11329;BME280;5719;42.714;23.732;2024-01-16T11:00:20;93958.16;;;3.21;95.80
11329;BME280;5719;42.714;23.732;2024-01-16T11:02:50;93953.22;;;3.18;94.38
11329;BME280;5719;42.714;23.732;2024-01-16T11:05:18;93943.56;;;3.08;93.20
11329;BME280;5719;42.714;23.732;2024-01-16T11:07:47;93951.66;;;3.16;93.81
11329;BME280;5719;42.714;23.732;2024-01-16T11:10:15;93940.97;;;3.40;92.57
11329;BME280;5719;42.714;23.732;2024-01-16T11:12:43;93955.25;;;3.76;91.25
11329;BME280;5719;42.714;23.732;2024-01-16T11:15:11;93952.84;;;3.73;89.96
11329;BME280;5719;42.714;23.732;2024-01-16T11:17:40;93936.88;;;3.69;89.17
11329;BME280;5719;42.714;23.732;2024-01-16T11:20:11;93946.44;;;3.81;87.75
11329;BME280;5719;42.714;23.732;2024-01-16T11:22:41;93946.44;;;3.81;86.75
11329;BME280;5719;42.714;23.732;2024-01-16T11:25:09;93948.22;;;3.79;88.76
11329;BME280;5719;42.714;23.732;2024-01-16T11:27:36;93951.53;;;3.97;87.37
11329;BME280;5719;42.714;23.732;2024-01-16T11:30:05;93953.09;;;3.68;87.16
11329;BME280;5719;42.714;23.732;2024-01-16T11:32:33;93970.50;;;3.77;86.46
11329;BME280;5719;42.714;23.732;2024-01-16T11:35:03;93966.72;;;3.53;86.66
11329;BME280;5719;42.714;23.732;2024-01-16T11:37:30;93957.47;;;3.66;87.19
11329;BME280;5719;42.714;23.732;2024-01-16T11:40:25;93986.50;;;3.81;86.85
11329;BME280;5719;42.714;23.732;2024-01-16T11:42:54;93970.09;;;3.69;85.72
11329;BME280;5719;42.714;23.732;2024-01-16T11:45:49;93971.25;;;3.79;86.47
11329;BME280;5719;42.714;23.732;2024-01-16T11:48:17;93965.53;;;3.90;86.15
11329;BME280;5719;42.714;23.732;2024-01-16T11:50:46;93977.59;;;3.72;83.44
11329;BME280;5719;42.714;23.732;2024-01-16T11:53:36;93970.69;;;3.74;86.00
11329;BME280;5719;42.714;23.732;2024-01-16T11:56:27;93975.63;;;3.77;85.84
11329;BME280;5719;42.714;23.732;2024-01-16T11:59:13;93960.19;;;3.79;84.43
11329;BME280;5719;42.714;23.732;2024-01-16T12:01:43;93974.56;;;3.81;83.31
11329;BME280;5719;42.714;23.732;2024-01-16T12:04:11;93976.53;;;3.92;83.58
11329;BME280;5719;42.714;23.732;2024-01-16T12:06:56;93975.03;;;3.88;82.63
11329;BME280;5719;42.714;23.732;2024-01-16T12:09:26;93991.69;;;3.79;81.96
11329;BME280;5719;42.714;23.732;2024-01-16T12:11:56;93983.09;;;3.65;82.51
11329;BME280;5719;42.714;23.732;2024-01-16T12:14:24;93994.91;;;3.52;84.58
11329;BME280;5719;42.714;23.732;2024-01-16T12:16:50;93988.13;;;3.51;83.99
11329;BME280;5719;42.714;23.732;2024-01-16T12:19:17;93998.44;;;3.49;83.66
11329;BME280;5719;42.714;23.732;2024-01-16T12:21:46;93984.34;;;3.58;84.33
11329;BME280;5719;42.714;23.732;2024-01-16T12:24:12;93987.44;;;3.64;83.24
11329;BME280;5719;42.714;23.732;2024-01-16T12:26:40;93999.69;;;3.73;83.81
11329;BME280;5719;42.714;23.732;2024-01-16T12:29:08;93998.72;;;3.60;83.52
11329;BME280;5719;42.714;23.732;2024-01-16T12:31:34;94000.66;;;3.55;84.42
11329;BME280;5719;42.714;23.732;2024-01-16T12:34:05;94008.75;;;3.79;82.77
11329;BME280;5719;42.714;23.732;2024-01-16T12:36:32;94006.72;;;3.70;81.43
11329;BME280;5719;42.714;23.732;2024-01-16T12:39:01;94013.47;;;3.86;81.81
11329;BME280;5719;42.714;23.732;2024-01-16T12:41:30;94018.84;;;3.97;80.39
11329;BME280;5719;42.714;23.732;2024-01-16T12:43:59;94005.97;;;3.99;80.38
11329;BME280;5719;42.714;23.732;2024-01-16T12:46:26;94000.69;;;4.18;78.59
11329;BME280;5719;42.714;23.732;2024-01-16T12:49:00;94022.97;;;4.00;77.38
11329;BME280;5719;42.714;23.732;2024-01-16T12:51:27;94012.06;;;4.12;79.30
11329;BME280;5719;42.714;23.732;2024-01-16T12:53:54;94026.09;;;4.36;77.30
11329;BME280;5719;42.714;23.732;2024-01-16T12:56:22;94032.34;;;4.47;75.94
11329;BME280;5719;42.714;23.732;2024-01-16T12:58:49;94031.34;;;4.49;74.09
11329;BME280;5719;42.714;23.732;2024-01-16T13:01:24;94018.78;;;4.44;71.20
11329;BME280;5719;42.714;23.732;2024-01-16T13:03:52;94031.84;;;4.40;72.99
11329;BME280;5719;42.714;23.732;2024-01-16T13:06:20;94039.25;;;4.44;72.41
11329;BME280;5719;42.714;23.732;2024-01-16T13:08:47;94043.91;;;4.38;71.88
11329;BME280;5719;42.714;23.732;2024-01-16T13:11:15;94038.09;;;4.66;71.27
11329;BME280;5719;42.714;23.732;2024-01-16T13:13:47;94033.63;;;4.69;69.67
11329;BME280;5719;42.714;23.732;2024-01-16T13:16:42;94048.81;;;4.72;71.67
11329;BME280;5719;42.714;23.732;2024-01-16T13:19:09;94049.97;;;4.67;70.07
11329;BME280;5719;42.714;23.732;2024-01-16T13:21:36;94037.47;;;4.76;70.55
11329;BME280;5719;42.714;23.732;2024-01-16T13:24:03;94030.22;;;4.99;69.23
11329;BME280;5719;42.714;23.732;2024-01-16T13:26:30;94034.31;;;5.31;68.74
11329;BME280;5719;42.714;23.732;2024-01-16T13:28:59;94045.47;;;5.58;68.77
11329;BME280;5719;42.714;23.732;2024-01-16T13:34:48;94052.75;;;6.35;65.08
11329;BME280;5719;42.714;23.732;2024-01-16T13:37:19;94055.06;;;6.66;62.73
11329;BME280;5719;42.714;23.732;2024-01-16T13:39:47;94058.88;;;6.73;60.71
11329;BME280;5719;42.714;23.732;2024-01-16T13:42:14;94054.00;;;6.96;61.00
11329;BME280;5719;42.714;23.732;2024-01-16T13:44:45;94063.06;;;6.74;58.36
11329;BME280;5719;42.714;23.732;2024-01-16T13:47:13;94054.41;;;6.36;58.70
11329;BME280;5719;42.714;23.732;2024-01-16T13:49:42;94045.41;;;6.43;59.29
11329;BME280;5719;42.714;23.732;2024-01-16T13:52:10;94075.00;;;6.75;58.73
11329;BME280;5719;42.714;23.732;2024-01-16T13:57:58;94070.00;;;5.48;70.29